sensor_id;sensor_type;location;lat;lon;timestamp;P1;durP1;ratioP1;P2;durP2;ratioP2
76125;SDS011;65174;48.138;21.002;2022-11-15T00:03:09;57.67;;;8.65;;
76125;SDS011;65174;48.138;21.002;2022-11-15T00:06:30;122.93;;;8.35;;
76125;SDS011;65174;48.138;21.002;2022-11-15T00:09:50;199.70;;;12.65;;
76125;SDS011;65174;48.138;21.002;2022-11-15T00:13:11;239.63;;;12.90;;
76125;SDS011;65174;48.138;21.002;2022-11-15T00:16:32;144.35;;;11.65;;
76125;SDS011;65174;48.138;21.002;2022-11-15T00:19:52;259.65;;;16.65;;
76125;SDS011;65174;48.138;21.002;2022-11-15T00:23:13;311.65;;;17.17;;
76125;SDS011;65174;48.138;21.002;2022-11-15T00:26:34;97.20;;;8.35;;
76125;SDS011;65174;48.138;21.002;2022-11-15T00:29:54;93.40;;;10.43;;
76125;SDS011;65174;48.138;21.002;2022-11-15T00:33:16;30.20;;;8.32;;
76125;SDS011;65174;48.138;21.002;2022-11-15T00:36:36;62.03;;;8.77;;
76125;SDS011;65174;48.138;21.002;2022-11-15T00:39:57;71.60;;;8.93;;
76125;SDS011;65174;48.138;21.002;2022-11-15T00:43:17;19.33;;;7.47;;
76125;SDS011;65174;48.138;21.002;2022-11-15T00:46:38;137.27;;;14.30;;
76125;SDS011;65174;48.138;21.002;2022-11-15T00:49:58;31.45;;;6.82;;
76125;SDS011;65174;48.138;21.002;2022-11-15T00:53:18;105.13;;;10.02;;
76125;SDS011;65174;48.138;21.002;2022-11-15T00:56:39;204.73;;;12.82;;
76125;SDS011;65174;48.138;21.002;2022-11-15T00:59:59;115.78;;;10.80;;
76125;SDS011;65174;48.138;21.002;2022-11-15T01:03:20;108.00;;;10.57;;
76125;SDS011;65174;48.138;21.002;2022-11-15T01:06:41;107.30;;;8.88;;
76125;SDS011;65174;48.138;21.002;2022-11-15T01:10:02;188.20;;;17.20;;
76125;SDS011;65174;48.138;21.002;2022-11-15T01:13:24;56.08;;;7.95;;
76125;SDS011;65174;48.138;21.002;2022-11-15T01:16:45;220.10;;;12.03;;
76125;SDS011;65174;48.138;21.002;2022-11-15T01:20:05;165.40;;;13.60;;
76125;SDS011;65174;48.138;21.002;2022-11-15T01:23:26;152.43;;;12.63;;
76125;SDS011;65174;48.138;21.002;2022-11-15T01:26:46;324.83;;;16.17;;
76125;SDS011;65174;48.138;21.002;2022-11-15T01:30:08;302.33;;;21.50;;
76125;SDS011;65174;48.138;21.002;2022-11-15T01:33:29;282.90;;;20.33;;
76125;SDS011;65174;48.138;21.002;2022-11-15T01:36:50;265.67;;;15.73;;
76125;SDS011;65174;48.138;21.002;2022-11-15T01:40:10;245.25;;;16.25;;
76125;SDS011;65174;48.138;21.002;2022-11-15T01:43:32;180.70;;;13.05;;
76125;SDS011;65174;48.138;21.002;2022-11-15T01:46:54;152.38;;;12.05;;
76125;SDS011;65174;48.138;21.002;2022-11-15T01:50:17;212.20;;;14.33;;
76125;SDS011;65174;48.138;21.002;2022-11-15T01:53:42;81.17;;;11.07;;
76125;SDS011;65174;48.138;21.002;2022-11-15T01:57:08;117.03;;;15.05;;
76125;SDS011;65174;48.138;21.002;2022-11-15T02:00:30;135.07;;;12.45;;
76125;SDS011;65174;48.138;21.002;2022-11-15T02:03:52;102.10;;;11.85;;
76125;SDS011;65174;48.138;21.002;2022-11-15T02:07:18;52.65;;;10.77;;
76125;SDS011;65174;48.138;21.002;2022-11-15T02:10:42;37.17;;;7.60;;
76125;SDS011;65174;48.138;21.002;2022-11-15T02:14:02;59.13;;;8.32;;
76125;SDS011;65174;48.138;21.002;2022-11-15T02:24:42;120.60;;;11.47;;
76125;SDS011;65174;48.138;21.002;2022-11-15T02:36:12;192.20;;;15.15;;
76125;SDS011;65174;48.138;21.002;2022-11-15T02:43:04;117.30;;;13.68;;
76125;SDS011;65174;48.138;21.002;2022-11-15T02:46:50;146.47;;;15.83;;
76125;SDS011;65174;48.138;21.002;2022-11-15T02:50:34;202.45;;;20.13;;
76125;SDS011;65174;48.138;21.002;2022-11-15T02:53:55;60.65;;;8.90;;
76125;SDS011;65174;48.138;21.002;2022-11-15T02:57:16;167.30;;;14.35;;
76125;SDS011;65174;48.138;21.002;2022-11-15T03:12:10;13.48;;;8.00;;
76125;SDS011;65174;48.138;21.002;2022-11-15T03:15:43;18.48;;;8.80;;
76125;SDS011;65174;48.138;21.002;2022-11-15T03:19:19;18.30;;;8.90;;
76125;SDS011;65174;48.138;21.002;2022-11-15T03:23:17;31.00;;;6.40;;
76125;SDS011;65174;48.138;21.002;2022-11-15T03:26:38;52.35;;;7.30;;
76125;SDS011;65174;48.138;21.002;2022-11-15T03:30:02;37.13;;;7.72;;
76125;SDS011;65174;48.138;21.002;2022-11-15T03:33:25;17.05;;;7.03;;
76125;SDS011;65174;48.138;21.002;2022-11-15T03:36:48;17.30;;;7.67;;
76125;SDS011;65174;48.138;21.002;2022-11-15T03:44:10;10.75;;;6.97;;
76125;SDS011;65174;48.138;21.002;2022-11-15T03:47:36;13.88;;;7.90;;
76125;SDS011;65174;48.138;21.002;2022-11-15T03:51:04;12.73;;;8.05;;
76125;SDS011;65174;48.138;21.002;2022-11-15T03:54:25;14.50;;;8.35;;
76125;SDS011;65174;48.138;21.002;2022-11-15T03:57:45;16.87;;;8.83;;
76125;SDS011;65174;48.138;21.002;2022-11-15T04:01:08;15.20;;;8.63;;
76125;SDS011;65174;48.138;21.002;2022-11-15T04:04:29;22.25;;;7.95;;
76125;SDS011;65174;48.138;21.002;2022-11-15T04:07:49;36.97;;;6.88;;
76125;SDS011;65174;48.138;21.002;2022-11-15T04:11:09;48.00;;;6.77;;
76125;SDS011;65174;48.138;21.002;2022-11-15T04:14:30;137.30;;;13.20;;
76125;SDS011;65174;48.138;21.002;2022-11-15T04:17:51;85.30;;;14.73;;
76125;SDS011;65174;48.138;21.002;2022-11-15T04:21:13;49.40;;;9.20;;
76125;SDS011;65174;48.138;21.002;2022-11-15T04:24:52;23.10;;;8.05;;
76125;SDS011;65174;48.138;21.002;2022-11-15T04:28:13;61.23;;;9.37;;
76125;SDS011;65174;48.138;21.002;2022-11-15T04:31:33;85.07;;;12.40;;
76125;SDS011;65174;48.138;21.002;2022-11-15T04:34:53;150.32;;;13.02;;
76125;SDS011;65174;48.138;21.002;2022-11-15T04:38:13;183.68;;;16.65;;
76125;SDS011;65174;48.138;21.002;2022-11-15T04:41:34;179.85;;;13.48;;
76125;SDS011;65174;48.138;21.002;2022-11-15T04:44:55;144.25;;;10.27;;
76125;SDS011;65174;48.138;21.002;2022-11-15T04:48:15;86.00;;;9.53;;
76125;SDS011;65174;48.138;21.002;2022-11-15T04:51:36;330.67;;;18.95;;
76125;SDS011;65174;48.138;21.002;2022-11-15T04:54:56;57.38;;;7.10;;
76125;SDS011;65174;48.138;21.002;2022-11-15T04:58:16;64.80;;;10.18;;
76125;SDS011;65174;48.138;21.002;2022-11-15T05:01:37;29.03;;;9.73;;
76125;SDS011;65174;48.138;21.002;2022-11-15T05:05:03;23.40;;;10.67;;
76125;SDS011;65174;48.138;21.002;2022-11-15T05:08:24;19.65;;;9.88;;
76125;SDS011;65174;48.138;21.002;2022-11-15T05:11:45;22.02;;;10.40;;
76125;SDS011;65174;48.138;21.002;2022-11-15T05:15:05;31.20;;;14.75;;
76125;SDS011;65174;48.138;21.002;2022-11-15T05:26:56;26.55;;;12.23;;
76125;SDS011;65174;48.138;21.002;2022-11-15T05:31:16;77.53;;;44.28;;
76125;SDS011;65174;48.138;21.002;2022-11-15T05:34:40;47.40;;;23.08;;
76125;SDS011;65174;48.138;21.002;2022-11-15T05:38:01;49.95;;;26.67;;
76125;SDS011;65174;48.138;21.002;2022-11-15T05:41:22;162.97;;;14.33;;
76125;SDS011;65174;48.138;21.002;2022-11-15T05:44:51;88.40;;;10.73;;
76125;SDS011;65174;48.138;21.002;2022-11-15T05:48:11;44.85;;;10.55;;
76125;SDS011;65174;48.138;21.002;2022-11-15T05:51:32;41.92;;;9.00;;
76125;SDS011;65174;48.138;21.002;2022-11-15T05:54:54;60.33;;;12.02;;
76125;SDS011;65174;48.138;21.002;2022-11-15T05:58:16;53.67;;;9.63;;
76125;SDS011;65174;48.138;21.002;2022-11-15T06:10:09;29.90;;;16.33;;
76125;SDS011;65174;48.138;21.002;2022-11-15T06:13:29;28.13;;;16.03;;
76125;SDS011;65174;48.138;21.002;2022-11-15T06:16:50;26.27;;;12.83;;
76125;SDS011;65174;48.138;21.002;2022-11-15T06:20:11;24.73;;;12.75;;
76125;SDS011;65174;48.138;21.002;2022-11-15T06:23:32;19.45;;;11.25;;
76125;SDS011;65174;48.138;21.002;2022-11-15T06:26:54;25.48;;;13.68;;
76125;SDS011;65174;48.138;21.002;2022-11-15T06:30:14;35.40;;;18.27;;
76125;SDS011;65174;48.138;21.002;2022-11-15T06:33:34;23.67;;;13.27;;
76125;SDS011;65174;48.138;21.002;2022-11-15T06:36:55;33.75;;;17.15;;
76125;SDS011;65174;48.138;21.002;2022-11-15T06:40:15;30.70;;;13.80;;
76125;SDS011;65174;48.138;21.002;2022-11-15T06:43:36;37.60;;;17.13;;
76125;SDS011;65174;48.138;21.002;2022-11-15T06:46:57;28.90;;;13.98;;
76125;SDS011;65174;48.138;21.002;2022-11-15T06:50:17;28.60;;;13.93;;
76125;SDS011;65174;48.138;21.002;2022-11-15T06:53:38;27.25;;;14.13;;
76125;SDS011;65174;48.138;21.002;2022-11-15T06:56:58;22.25;;;12.57;;
76125;SDS011;65174;48.138;21.002;2022-11-15T07:00:20;20.75;;;11.60;;
76125;SDS011;65174;48.138;21.002;2022-11-15T07:03:41;88.40;;;11.82;;
76125;SDS011;65174;48.138;21.002;2022-11-15T07:07:02;81.70;;;9.47;;
76125;SDS011;65174;48.138;21.002;2022-11-15T07:10:24;90.53;;;10.65;;
76125;SDS011;65174;48.138;21.002;2022-11-15T07:13:45;79.63;;;11.32;;
76125;SDS011;65174;48.138;21.002;2022-11-15T07:17:06;133.32;;;11.73;;
76125;SDS011;65174;48.138;21.002;2022-11-15T07:20:26;38.17;;;11.70;;
76125;SDS011;65174;48.138;21.002;2022-11-15T07:23:47;24.13;;;12.27;;
76125;SDS011;65174;48.138;21.002;2022-11-15T07:27:07;27.52;;;14.85;;
76125;SDS011;65174;48.138;21.002;2022-11-15T07:30:28;28.13;;;11.57;;
76125;SDS011;65174;48.138;21.002;2022-11-15T07:33:49;63.53;;;12.05;;
76125;SDS011;65174;48.138;21.002;2022-11-15T07:37:09;33.45;;;11.55;;
76125;SDS011;65174;48.138;21.002;2022-11-15T07:40:31;34.77;;;10.40;;
76125;SDS011;65174;48.138;21.002;2022-11-15T07:43:52;26.00;;;11.15;;
76125;SDS011;65174;48.138;21.002;2022-11-15T07:47:12;61.75;;;10.00;;
76125;SDS011;65174;48.138;21.002;2022-11-15T07:50:33;93.55;;;11.27;;
76125;SDS011;65174;48.138;21.002;2022-11-15T07:53:54;79.20;;;11.30;;
76125;SDS011;65174;48.138;21.002;2022-11-15T07:57:14;48.10;;;10.20;;
76125;SDS011;65174;48.138;21.002;2022-11-15T08:00:36;165.82;;;12.55;;
76125;SDS011;65174;48.138;21.002;2022-11-15T08:03:58;115.00;;;13.13;;
76125;SDS011;65174;48.138;21.002;2022-11-15T08:07:18;147.48;;;12.90;;
76125;SDS011;65174;48.138;21.002;2022-11-15T08:10:40;202.55;;;15.70;;
76125;SDS011;65174;48.138;21.002;2022-11-15T08:14:01;73.07;;;15.63;;
76125;SDS011;65174;48.138;21.002;2022-11-15T08:17:21;50.10;;;15.68;;
76125;SDS011;65174;48.138;21.002;2022-11-15T08:20:46;55.05;;;21.75;;
76125;SDS011;65174;48.138;21.002;2022-11-15T08:24:08;59.55;;;27.98;;
76125;SDS011;65174;48.138;21.002;2022-11-15T08:27:30;30.03;;;16.03;;
76125;SDS011;65174;48.138;21.002;2022-11-15T08:30:52;29.77;;;13.87;;
76125;SDS011;65174;48.138;21.002;2022-11-15T08:34:13;34.63;;;15.55;;
76125;SDS011;65174;48.138;21.002;2022-11-15T08:37:33;30.42;;;15.18;;
76125;SDS011;65174;48.138;21.002;2022-11-15T08:41:01;33.35;;;16.15;;
76125;SDS011;65174;48.138;21.002;2022-11-15T08:44:23;25.83;;;13.97;;
76125;SDS011;65174;48.138;21.002;2022-11-15T08:47:44;29.63;;;16.70;;
76125;SDS011;65174;48.138;21.002;2022-11-15T08:51:12;29.75;;;15.60;;
76125;SDS011;65174;48.138;21.002;2022-11-15T08:54:32;31.10;;;14.70;;
76125;SDS011;65174;48.138;21.002;2022-11-15T08:57:53;30.38;;;15.75;;
76125;SDS011;65174;48.138;21.002;2022-11-15T09:01:15;30.40;;;15.02;;
76125;SDS011;65174;48.138;21.002;2022-11-15T09:04:39;25.83;;;15.17;;
76125;SDS011;65174;48.138;21.002;2022-11-15T09:08:01;31.35;;;17.13;;
76125;SDS011;65174;48.138;21.002;2022-11-15T09:11:43;32.47;;;15.38;;
76125;SDS011;65174;48.138;21.002;2022-11-15T09:15:12;28.20;;;15.60;;
76125;SDS011;65174;48.138;21.002;2022-11-15T09:18:33;25.48;;;14.68;;
76125;SDS011;65174;48.138;21.002;2022-11-15T09:21:54;27.40;;;16.93;;
76125;SDS011;65174;48.138;21.002;2022-11-15T09:25:15;30.58;;;16.95;;
76125;SDS011;65174;48.138;21.002;2022-11-15T09:28:35;35.83;;;18.20;;
76125;SDS011;65174;48.138;21.002;2022-11-15T09:31:56;27.88;;;16.35;;
76125;SDS011;65174;48.138;21.002;2022-11-15T09:35:17;29.80;;;16.90;;
76125;SDS011;65174;48.138;21.002;2022-11-15T09:38:37;29.60;;;16.17;;
76125;SDS011;65174;48.138;21.002;2022-11-15T09:42:02;29.83;;;17.35;;
76125;SDS011;65174;48.138;21.002;2022-11-15T09:49:22;35.13;;;20.27;;
76125;SDS011;65174;48.138;21.002;2022-11-15T09:52:50;46.10;;;24.87;;
76125;SDS011;65174;48.138;21.002;2022-11-15T09:55:59;45.27;;;25.13;;
76125;SDS011;65174;48.138;21.002;2022-11-15T10:03:38;40.40;;;21.75;;
76125;SDS011;65174;48.138;21.002;2022-11-15T10:06:25;67.40;;;30.33;;
76125;SDS011;65174;48.138;21.002;2022-11-15T10:09:51;48.58;;;25.45;;
76125;SDS011;65174;48.138;21.002;2022-11-15T10:12:55;30.90;;;16.80;;
76125;SDS011;65174;48.138;21.002;2022-11-15T10:16:09;35.08;;;19.30;;
76125;SDS011;65174;48.138;21.002;2022-11-15T10:19:26;72.40;;;37.92;;
76125;SDS011;65174;48.138;21.002;2022-11-15T10:22:49;44.17;;;22.63;;
76125;SDS011;65174;48.138;21.002;2022-11-15T10:25:53;49.65;;;26.83;;
76125;SDS011;65174;48.138;21.002;2022-11-15T10:29:07;66.93;;;34.33;;
76125;SDS011;65174;48.138;21.002;2022-11-15T10:32:10;45.83;;;25.52;;
76125;SDS011;65174;48.138;21.002;2022-11-15T10:38:27;33.70;;;19.85;;
76125;SDS011;65174;48.138;21.002;2022-11-15T10:41:31;30.73;;;18.42;;
76125;SDS011;65174;48.138;21.002;2022-11-15T10:44:41;29.90;;;18.27;;
76125;SDS011;65174;48.138;21.002;2022-11-15T10:47:44;31.50;;;19.75;;
76125;SDS011;65174;48.138;21.002;2022-11-15T10:50:48;33.45;;;19.20;;
76125;SDS011;65174;48.138;21.002;2022-11-15T10:53:52;32.30;;;18.25;;
76125;SDS011;65174;48.138;21.002;2022-11-15T10:56:54;32.88;;;18.80;;
76125;SDS011;65174;48.138;21.002;2022-11-15T11:00:05;37.63;;;20.43;;
76125;SDS011;65174;48.138;21.002;2022-11-15T11:03:31;31.85;;;18.27;;
76125;SDS011;65174;48.138;21.002;2022-11-15T11:06:48;34.60;;;18.85;;
76125;SDS011;65174;48.138;21.002;2022-11-15T11:10:17;33.67;;;18.67;;
76125;SDS011;65174;48.138;21.002;2022-11-15T11:13:41;34.33;;;18.87;;
76125;SDS011;65174;48.138;21.002;2022-11-15T11:23:42;31.52;;;20.13;;
76125;SDS011;65174;48.138;21.002;2022-11-15T11:26:49;36.47;;;20.80;;
76125;SDS011;65174;48.138;21.002;2022-11-15T11:30:41;34.20;;;20.80;;
76125;SDS011;65174;48.138;21.002;2022-11-15T11:38:01;32.47;;;20.15;;
76125;SDS011;65174;48.138;21.002;2022-11-15T11:41:27;32.92;;;18.98;;
76125;SDS011;65174;48.138;21.002;2022-11-15T11:48:12;36.20;;;22.92;;
76125;SDS011;65174;48.138;21.002;2022-11-15T12:01:15;32.42;;;18.90;;
76125;SDS011;65174;48.138;21.002;2022-11-15T12:04:29;32.60;;;19.00;;
76125;SDS011;65174;48.138;21.002;2022-11-15T12:07:38;27.50;;;17.63;;
76125;SDS011;65174;48.138;21.002;2022-11-15T12:10:45;29.95;;;18.50;;
76125;SDS011;65174;48.138;21.002;2022-11-15T12:13:53;31.52;;;19.23;;
76125;SDS011;65174;48.138;21.002;2022-11-15T12:17:02;31.88;;;18.73;;
76125;SDS011;65174;48.138;21.002;2022-11-15T12:20:23;39.83;;;19.45;;
76125;SDS011;65174;48.138;21.002;2022-11-15T12:23:31;30.73;;;18.90;;
76125;SDS011;65174;48.138;21.002;2022-11-15T12:26:40;30.92;;;19.23;;
76125;SDS011;65174;48.138;21.002;2022-11-15T12:29:51;31.38;;;20.02;;
76125;SDS011;65174;48.138;21.002;2022-11-15T12:32:58;30.83;;;19.38;;
76125;SDS011;65174;48.138;21.002;2022-11-15T12:36:03;30.77;;;19.30;;
76125;SDS011;65174;48.138;21.002;2022-11-15T12:40:27;28.87;;;18.03;;
76125;SDS011;65174;48.138;21.002;2022-11-15T12:46:20;33.08;;;18.52;;
76125;SDS011;65174;48.138;21.002;2022-11-15T12:52:33;32.80;;;18.92;;
76125;SDS011;65174;48.138;21.002;2022-11-15T12:55:34;33.23;;;19.87;;
76125;SDS011;65174;48.138;21.002;2022-11-15T13:01:56;33.22;;;20.42;;
76125;SDS011;65174;48.138;21.002;2022-11-15T13:11:47;42.60;;;19.50;;
76125;SDS011;65174;48.138;21.002;2022-11-15T13:14:51;30.33;;;19.60;;
76125;SDS011;65174;48.138;21.002;2022-11-15T13:17:55;40.30;;;21.83;;
76125;SDS011;65174;48.138;21.002;2022-11-15T13:20:58;31.88;;;20.13;;
76125;SDS011;65174;48.138;21.002;2022-11-15T13:24:03;37.90;;;21.90;;
76125;SDS011;65174;48.138;21.002;2022-11-15T13:27:15;32.10;;;21.50;;
76125;SDS011;65174;48.138;21.002;2022-11-15T13:30:22;41.75;;;24.30;;
76125;SDS011;65174;48.138;21.002;2022-11-15T13:33:33;36.95;;;23.38;;
76125;SDS011;65174;48.138;21.002;2022-11-15T13:36:37;35.58;;;21.65;;
76125;SDS011;65174;48.138;21.002;2022-11-15T13:39:39;36.80;;;22.87;;
76125;SDS011;65174;48.138;21.002;2022-11-15T13:42:41;33.30;;;21.33;;
76125;SDS011;65174;48.138;21.002;2022-11-15T13:49:28;38.97;;;22.77;;
76125;SDS011;65174;48.138;21.002;2022-11-15T13:52:32;35.08;;;22.63;;
76125;SDS011;65174;48.138;21.002;2022-11-15T13:55:42;36.72;;;22.83;;
76125;SDS011;65174;48.138;21.002;2022-11-15T13:58:45;38.63;;;23.07;;
76125;SDS011;65174;48.138;21.002;2022-11-15T14:01:48;50.72;;;26.92;;
76125;SDS011;65174;48.138;21.002;2022-11-15T14:08:37;44.80;;;27.50;;
76125;SDS011;65174;48.138;21.002;2022-11-15T14:12:21;50.30;;;29.83;;
76125;SDS011;65174;48.138;21.002;2022-11-15T14:15:53;42.23;;;22.20;;
76125;SDS011;65174;48.138;21.002;2022-11-15T14:22:51;41.22;;;23.15;;
76125;SDS011;65174;48.138;21.002;2022-11-15T14:26:30;46.60;;;23.00;;
76125;SDS011;65174;48.138;21.002;2022-11-15T14:29:53;40.20;;;24.17;;
76125;SDS011;65174;48.138;21.002;2022-11-15T14:33:18;96.63;;;52.20;;
76125;SDS011;65174;48.138;21.002;2022-11-15T14:36:43;61.83;;;33.42;;
76125;SDS011;65174;48.138;21.002;2022-11-15T14:40:05;67.53;;;34.53;;
76125;SDS011;65174;48.138;21.002;2022-11-15T14:43:27;64.90;;;37.13;;
76125;SDS011;65174;48.138;21.002;2022-11-15T14:46:49;55.57;;;33.27;;
76125;SDS011;65174;48.138;21.002;2022-11-15T14:49:51;66.67;;;38.40;;
76125;SDS011;65174;48.138;21.002;2022-11-15T14:52:53;63.05;;;35.80;;
76125;SDS011;65174;48.138;21.002;2022-11-15T14:56:57;58.30;;;33.35;;
76125;SDS011;65174;48.138;21.002;2022-11-15T15:00:59;64.70;;;35.00;;
76125;SDS011;65174;48.138;21.002;2022-11-15T15:04:20;56.87;;;31.23;;
76125;SDS011;65174;48.138;21.002;2022-11-15T15:07:22;51.93;;;29.70;;
76125;SDS011;65174;48.138;21.002;2022-11-15T15:10:40;49.63;;;28.83;;
76125;SDS011;65174;48.138;21.002;2022-11-15T15:13:44;54.67;;;30.48;;
76125;SDS011;65174;48.138;21.002;2022-11-15T15:16:46;54.50;;;31.13;;
76125;SDS011;65174;48.138;21.002;2022-11-15T15:19:48;52.50;;;32.33;;
76125;SDS011;65174;48.138;21.002;2022-11-15T15:22:50;52.53;;;30.70;;
76125;SDS011;65174;48.138;21.002;2022-11-15T15:25:51;60.17;;;31.52;;
76125;SDS011;65174;48.138;21.002;2022-11-15T15:28:54;57.95;;;32.08;;
76125;SDS011;65174;48.138;21.002;2022-11-15T15:31:56;74.32;;;31.25;;
76125;SDS011;65174;48.138;21.002;2022-11-15T15:34:58;81.47;;;45.70;;
76125;SDS011;65174;48.138;21.002;2022-11-15T15:38:00;91.33;;;52.13;;
76125;SDS011;65174;48.138;21.002;2022-11-15T15:41:03;92.80;;;54.13;;
76125;SDS011;65174;48.138;21.002;2022-11-15T15:44:05;55.38;;;33.50;;
76125;SDS011;65174;48.138;21.002;2022-11-15T15:47:15;47.05;;;27.92;;
76125;SDS011;65174;48.138;21.002;2022-11-15T15:50:21;44.97;;;26.90;;
76125;SDS011;65174;48.138;21.002;2022-11-15T15:53:50;40.67;;;24.77;;
76125;SDS011;65174;48.138;21.002;2022-11-15T15:56:54;44.70;;;26.75;;
76125;SDS011;65174;48.138;21.002;2022-11-15T15:59:57;52.40;;;29.90;;
76125;SDS011;65174;48.138;21.002;2022-11-15T16:03:59;59.60;;;35.83;;
76125;SDS011;65174;48.138;21.002;2022-11-15T16:08:00;65.20;;;37.30;;
76125;SDS011;65174;48.138;21.002;2022-11-15T16:12:22;52.30;;;31.43;;
76125;SDS011;65174;48.138;21.002;2022-11-15T16:16:23;49.40;;;29.48;;
76125;SDS011;65174;48.138;21.002;2022-11-15T16:20:38;46.95;;;28.77;;
76125;SDS011;65174;48.138;21.002;2022-11-15T16:24:39;59.53;;;35.20;;
76125;SDS011;65174;48.138;21.002;2022-11-15T16:27:50;60.17;;;34.47;;
76125;SDS011;65174;48.138;21.002;2022-11-15T16:31:53;65.63;;;37.43;;
76125;SDS011;65174;48.138;21.002;2022-11-15T16:35:55;60.15;;;33.42;;
76125;SDS011;65174;48.138;21.002;2022-11-15T16:40:02;59.28;;;33.65;;
76125;SDS011;65174;48.138;21.002;2022-11-15T16:44:04;56.22;;;31.95;;
76125;SDS011;65174;48.138;21.002;2022-11-15T16:48:05;60.33;;;34.00;;
76125;SDS011;65174;48.138;21.002;2022-11-15T16:52:07;57.43;;;32.03;;
76125;SDS011;65174;48.138;21.002;2022-11-15T16:56:19;57.88;;;32.97;;
76125;SDS011;65174;48.138;21.002;2022-11-15T17:00:20;61.58;;;34.28;;
76125;SDS011;65174;48.138;21.002;2022-11-15T18:21:45;76.57;;;36.90;;
76125;SDS011;65174;48.138;21.002;2022-11-15T18:24:57;88.63;;;43.03;;
76125;SDS011;65174;48.138;21.002;2022-11-15T18:27:59;101.25;;;44.47;;
76125;SDS011;65174;48.138;21.002;2022-11-15T18:31:03;97.13;;;44.88;;
76125;SDS011;65174;48.138;21.002;2022-11-15T18:34:17;85.73;;;41.40;;
76125;SDS011;65174;48.138;21.002;2022-11-15T18:37:19;68.57;;;36.53;;
76125;SDS011;65174;48.138;21.002;2022-11-15T18:40:21;59.40;;;33.58;;
76125;SDS011;65174;48.138;21.002;2022-11-15T18:43:23;57.53;;;31.88;;
76125;SDS011;65174;48.138;21.002;2022-11-15T18:46:27;56.92;;;32.38;;
76125;SDS011;65174;48.138;21.002;2022-11-15T18:49:33;59.23;;;32.70;;
76125;SDS011;65174;48.138;21.002;2022-11-15T18:52:35;53.83;;;30.85;;
76125;SDS011;65174;48.138;21.002;2022-11-15T18:55:41;56.25;;;31.48;;
76125;SDS011;65174;48.138;21.002;2022-11-15T18:58:44;51.03;;;28.10;;
76125;SDS011;65174;48.138;21.002;2022-11-15T19:01:48;49.38;;;28.50;;
76125;SDS011;65174;48.138;21.002;2022-11-15T19:04:52;52.97;;;28.17;;
76125;SDS011;65174;48.138;21.002;2022-11-15T19:07:54;51.80;;;28.10;;
76125;SDS011;65174;48.138;21.002;2022-11-15T19:11:00;47.42;;;26.92;;
76125;SDS011;65174;48.138;21.002;2022-11-15T19:14:15;47.85;;;27.75;;
76125;SDS011;65174;48.138;21.002;2022-11-15T19:17:18;53.90;;;30.55;;
76125;SDS011;65174;48.138;21.002;2022-11-15T19:20:21;51.60;;;31.30;;
76125;SDS011;65174;48.138;21.002;2022-11-15T19:23:23;52.65;;;29.98;;
76125;SDS011;65174;48.138;21.002;2022-11-15T19:26:27;51.05;;;29.95;;
76125;SDS011;65174;48.138;21.002;2022-11-15T19:29:30;51.63;;;28.52;;
76125;SDS011;65174;48.138;21.002;2022-11-15T19:32:32;56.17;;;32.70;;
76125;SDS011;65174;48.138;21.002;2022-11-15T19:35:34;53.07;;;31.67;;
76125;SDS011;65174;48.138;21.002;2022-11-15T19:38:36;52.72;;;32.28;;
76125;SDS011;65174;48.138;21.002;2022-11-15T19:41:39;58.45;;;33.80;;
76125;SDS011;65174;48.138;21.002;2022-11-15T19:44:43;56.85;;;32.25;;
76125;SDS011;65174;48.138;21.002;2022-11-15T19:47:45;56.33;;;31.00;;
76125;SDS011;65174;48.138;21.002;2022-11-15T19:50:47;54.43;;;31.67;;
76125;SDS011;65174;48.138;21.002;2022-11-15T19:53:55;57.60;;;33.25;;
76125;SDS011;65174;48.138;21.002;2022-11-15T19:56:58;57.28;;;32.92;;
76125;SDS011;65174;48.138;21.002;2022-11-15T20:00:00;55.10;;;31.20;;
76125;SDS011;65174;48.138;21.002;2022-11-15T20:03:08;56.72;;;31.40;;
76125;SDS011;65174;48.138;21.002;2022-11-15T20:06:11;55.87;;;32.27;;
76125;SDS011;65174;48.138;21.002;2022-11-15T20:09:16;62.58;;;33.28;;
76125;SDS011;65174;48.138;21.002;2022-11-15T20:12:19;58.65;;;33.35;;
76125;SDS011;65174;48.138;21.002;2022-11-15T20:15:21;59.38;;;34.88;;
76125;SDS011;65174;48.138;21.002;2022-11-15T20:18:23;65.75;;;34.85;;
76125;SDS011;65174;48.138;21.002;2022-11-15T22:55:42;230.95;;;46.10;;
76125;SDS011;65174;48.138;21.002;2022-11-15T22:58:50;194.20;;;44.17;;
76125;SDS011;65174;48.138;21.002;2022-11-15T23:01:51;217.52;;;45.60;;
76125;SDS011;65174;48.138;21.002;2022-11-15T23:04:54;216.63;;;45.72;;
76125;SDS011;65174;48.138;21.002;2022-11-15T23:07:56;205.87;;;46.60;;
76125;SDS011;65174;48.138;21.002;2022-11-15T23:11:03;244.77;;;49.38;;
76125;SDS011;65174;48.138;21.002;2022-11-15T23:14:43;206.02;;;45.47;;
76125;SDS011;65174;48.138;21.002;2022-11-15T23:18:05;218.02;;;43.30;;
76125;SDS011;65174;48.138;21.002;2022-11-15T23:21:29;211.40;;;47.73;;
76125;SDS011;65174;48.138;21.002;2022-11-15T23:25:11;316.23;;;48.50;;
76125;SDS011;65174;48.138;21.002;2022-11-15T23:28:13;145.25;;;47.60;;
76125;SDS011;65174;48.138;21.002;2022-11-15T23:31:15;114.05;;;48.83;;
76125;SDS011;65174;48.138;21.002;2022-11-15T23:34:36;126.05;;;48.35;;
76125;SDS011;65174;48.138;21.002;2022-11-15T23:37:39;173.67;;;50.13;;
76125;SDS011;65174;48.138;21.002;2022-11-15T23:40:42;134.10;;;49.90;;
76125;SDS011;65174;48.138;21.002;2022-11-15T23:43:43;142.30;;;50.35;;
76125;SDS011;65174;48.138;21.002;2022-11-15T23:46:45;114.78;;;47.78;;
76125;SDS011;65174;48.138;21.002;2022-11-15T23:49:48;127.22;;;51.03;;
76125;SDS011;65174;48.138;21.002;2022-11-15T23:52:50;127.22;;;46.65;;
76125;SDS011;65174;48.138;21.002;2022-11-15T23:55:55;98.63;;;44.73;;
76125;SDS011;65174;48.138;21.002;2022-11-15T23:58:58;129.30;;;47.58;;
